Time;durP1;ratioP1;P1;durP2;ratioP2;P2;SDS_P1;SDS_P2;PMS_P1;PMS_P2;Temp;Humidity;BMP_temperature;BMP_pressure;BME280_temperature;BME280_humidity;BME280_pressure;Samples;Min_cycle;Max_cycle;Signal;HPM_P1;HPM_P2
2023/03/11 00:00:52;;;;;;;20.33;13.90;;;1.20;99.90;;;0.02;92.56;99273.22;5054101;28;20372;-75
2023/03/11 00:03:26;;;;;;;15.43;13.20;;;1.10;99.90;;;0.05;91.56;99286.13;5053917;28;20225;-75
2023/03/11 00:06:02;;;;;;;16.00;13.53;;;1.10;99.90;;;0.07;91.51;99291.28;5053645;28;20197;-75
2023/03/11 00:08:35;;;;;;;16.37;13.63;;;1.10;99.90;;;0.05;91.52;99301.91;5053952;28;20262;-75
2023/03/11 00:11:07;;;;;;;16.10;14.40;;;1.10;99.90;;;0.07;91.68;99310.50;5053862;28;20194;-75
2023/03/11 00:13:40;;;;;;;19.37;14.60;;;1.10;99.90;;;0.04;91.88;99315.19;5053693;28;20690;-75
2023/03/11 00:16:11;;;;;;;16.47;13.33;;;1.10;99.90;;;0.12;91.40;99329.38;5053648;28;20210;-75
2023/03/11 00:18:43;;;;;;;18.37;14.80;;;1.20;99.90;;;0.06;91.59;99324.66;5053688;28;20211;-75
2023/03/11 00:21:20;;;;;;;16.63;14.20;;;1.10;99.90;;;0.05;92.05;99332.66;5053691;28;20205;-75
2023/03/11 00:23:52;;;;;;;15.80;13.83;;;1.10;99.90;;;0.09;91.85;99340.16;5053226;28;20238;-75
2023/03/11 00:26:24;;;;;;;17.00;14.17;;;1.20;99.90;;;0.11;91.70;99340.88;5053355;28;20194;-75
2023/03/11 00:28:56;;;;;;;14.63;13.03;;;1.20;99.90;;;0.05;91.46;99362.44;5053596;28;20190;-75
2023/03/11 00:31:27;;;;;;;18.10;14.47;;;1.20;99.90;;;0.05;92.04;99354.53;5053274;28;20638;-75
2023/03/11 00:33:59;;;;;;;18.53;14.90;;;1.10;99.90;;;0.03;92.88;99360.91;5053475;28;20233;-75
2023/03/11 00:36:35;;;;;;;18.80;15.10;;;1.10;99.90;;;-0.03;92.48;99372.75;5053529;28;20198;-75
2023/03/11 00:39:09;;;;;;;17.33;14.50;;;1.10;99.90;;;0.00;92.74;99372.53;5053407;28;20214;-75
2023/03/11 00:41:41;;;;;;;16.13;13.50;;;1.10;99.90;;;0.02;92.27;99381.09;5053546;28;20546;-75
2023/03/11 00:44:13;;;;;;;18.30;14.80;;;1.10;99.90;;;-0.02;92.51;99383.16;5053332;28;20222;-75
2023/03/11 00:46:45;;;;;;;18.37;15.50;;;1.10;99.90;;;0.02;92.05;99389.00;5053425;28;20198;-75
2023/03/11 00:49:17;;;;;;;18.47;15.47;;;1.10;99.90;;;-0.02;92.60;99392.84;5053350;28;20186;-75
2023/03/11 00:51:50;;;;;;;19.03;15.10;;;1.10;99.90;;;-0.11;92.99;99393.59;5053334;28;20198;-74
2023/03/11 00:54:22;;;;;;;18.93;16.00;;;1.00;99.90;;;0.03;93.42;99409.09;5052999;28;20736;-75
2023/03/11 00:56:54;;;;;;;18.63;15.40;;;1.10;99.90;;;-0.06;92.16;99412.47;5053338;28;20244;-75
2023/03/11 00:59:26;;;;;;;19.33;16.47;;;1.10;99.90;;;-0.05;92.56;99419.41;5053223;28;20210;-74
2023/03/11 01:01:58;;;;;;;18.77;15.70;;;1.10;99.90;;;-0.05;93.03;99422.03;5052983;28;20575;-75
2023/03/11 01:04:30;;;;;;;18.17;15.20;;;1.10;99.90;;;0.02;92.29;99423.19;5053187;28;20236;-75
2023/03/11 01:07:03;;;;;;;19.03;15.57;;;1.00;99.90;;;0.01;92.44;99421.53;5053288;28;20273;-75
2023/03/11 01:09:35;;;;;;;18.03;14.73;;;1.10;99.90;;;-0.05;92.11;99422.88;5053208;28;20201;-75
2023/03/11 01:12:08;;;;;;;17.63;14.53;;;1.10;99.90;;;-0.08;92.60;99417.03;5053169;28;20201;-75
2023/03/11 01:14:40;;;;;;;17.67;14.50;;;1.00;99.90;;;-0.02;92.28;99421.78;5052944;28;20222;-75
2023/03/11 01:17:11;;;;;;;16.33;13.13;;;1.10;99.90;;;0.00;92.52;99435.66;5053117;28;20225;-75
2023/03/11 01:19:44;;;;;;;16.37;13.70;;;1.10;99.90;;;0.00;92.10;99435.66;5053054;28;20214;-75
2023/03/11 01:22:17;;;;;;;16.93;14.03;;;1.10;99.90;;;0.01;92.35;99450.47;5053087;28;20194;-75
2023/03/11 01:24:49;;;;;;;15.40;12.87;;;1.10;99.90;;;-0.09;92.04;99458.28;5052977;28;20229;-75
2023/03/11 01:27:21;;;;;;;15.43;13.27;;;1.10;99.90;;;-0.05;92.40;99461.50;5053257;28;20193;-75
2023/03/11 01:29:53;;;;;;;15.73;13.00;;;1.00;99.90;;;-0.08;92.01;99467.00;5053008;28;20249;-75
2023/03/11 01:32:25;;;;;;;16.30;12.83;;;1.00;99.90;;;-0.05;92.88;99474.66;5052992;28;20572;-75
2023/03/11 01:34:57;;;;;;;13.63;11.50;;;1.10;99.90;;;-0.06;91.87;99478.22;5052897;28;20264;-74
2023/03/11 01:37:30;;;;;;;13.50;11.97;;;1.10;99.90;;;-0.07;92.26;99490.53;5055792;28;20190;-75
2023/03/11 01:40:02;;;;;;;11.70;10.30;;;1.00;99.90;;;-0.12;91.84;99478.72;5057196;28;20217;-75
2023/03/11 01:42:33;;;;;;;12.20;9.90;;;1.00;99.90;;;-0.19;91.47;99496.81;5056701;28;20191;-75
2023/03/11 01:45:18;;;;;;;11.50;9.80;;;1.00;99.90;;;-0.19;91.40;99503.84;5056638;28;20222;-75
2023/03/11 01:47:50;;;;;;;10.87;9.03;;;0.90;99.90;;;-0.14;91.67;99518.31;5056604;28;20198;-75
2023/03/11 01:50:22;;;;;;;11.20;9.23;;;1.00;99.90;;;-0.24;92.24;99521.81;5056581;28;20187;-75
2023/03/11 01:52:55;;;;;;;10.17;8.50;;;0.90;99.90;;;-0.14;92.60;99520.13;5056481;28;20199;-75
2023/03/11 01:55:28;;;;;;;10.93;9.17;;;1.00;99.90;;;-0.10;91.27;99537.31;5056440;28;20195;-76
2023/03/11 01:58:04;;;;;;;9.70;8.33;;;1.00;99.90;;;-0.06;91.39;99531.69;5056409;28;20191;-76
2023/03/11 02:00:37;;;;;;;9.33;7.90;;;1.00;99.90;;;-0.11;90.76;99538.28;5056246;28;20209;-75
2023/03/11 02:03:18;;;;;;;9.17;7.93;;;1.00;99.90;;;-0.12;91.15;99547.97;5056217;28;20209;-75
2023/03/11 02:05:54;;;;;;;9.07;6.83;;;1.00;99.90;;;-0.06;90.83;99557.16;5056259;28;20218;-75
2023/03/11 02:08:28;;;;;;;8.57;7.27;;;1.00;99.90;;;-0.06;90.86;99558.00;5056463;28;20205;-74
2023/03/11 02:11:02;;;;;;;8.93;6.83;;;1.10;99.90;;;-0.12;90.25;99560.28;5056159;28;20182;-75
2023/03/11 02:13:39;;;;;;;8.47;5.90;;;1.00;99.90;;;-0.17;90.35;99560.63;5056268;28;20237;-74
2023/03/11 02:16:12;;;;;;;6.87;6.10;;;1.00;99.90;;;-0.13;91.05;99564.69;5055693;28;20682;-74
2023/03/11 02:18:46;;;;;;;6.60;5.70;;;1.00;99.90;;;-0.12;90.45;99574.28;5056057;28;20233;-75
2023/03/11 02:21:26;;;;;;;8.13;6.17;;;1.00;99.90;;;-0.13;90.68;99574.38;5055888;28;20213;-75
2023/03/11 02:24:11;;;;;;;8.03;6.17;;;1.00;99.90;;;-0.20;91.19;99567.94;5055848;28;20236;-75
2023/03/11 02:26:50;;;;;;;7.23;6.43;;;0.90;99.90;;;-0.14;90.58;99570.09;5055566;28;20190;-75
2023/03/11 02:29:24;;;;;;;7.67;6.43;;;1.00;99.90;;;-0.20;90.55;99565.31;5055800;28;20197;-75
2023/03/11 02:31:58;;;;;;;6.73;5.63;;;0.90;99.90;;;-0.23;89.98;99583.97;5055763;28;20195;-75
2023/03/11 02:34:35;;;;;;;8.03;6.20;;;0.90;99.90;;;-0.24;89.38;99579.69;5055596;28;20226;-75
2023/03/11 02:37:10;;;;;;;8.80;6.53;;;0.90;99.90;;;-0.20;89.40;99591.59;5055378;28;20197;-75
2023/03/11 02:39:45;;;;;;;8.93;6.20;;;0.90;99.90;;;-0.22;90.29;99596.16;5055534;28;20287;-75
2023/03/11 02:42:23;;;;;;;10.43;6.73;;;0.90;99.90;;;-0.22;89.70;99590.91;5055565;28;20194;-75
2023/03/11 02:45:01;;;;;;;9.73;6.23;;;0.90;99.90;;;-0.26;91.08;99597.34;5055163;28;20633;-75
2023/03/11 02:47:34;;;;;;;7.87;6.77;;;0.90;99.90;;;-0.34;91.01;99599.75;5055430;28;20194;-75
2023/03/11 02:50:09;;;;;;;10.83;7.43;;;0.80;99.90;;;-0.21;90.19;99611.00;5055701;28;20197;-75
2023/03/11 02:52:41;;;;;;;9.73;6.93;;;0.90;99.90;;;-0.24;90.71;99611.22;5055076;28;20275;-75
2023/03/11 02:55:14;;;;;;;7.63;6.67;;;0.90;99.90;;;-0.22;91.31;99620.69;5054929;28;20630;-75
2023/03/11 02:57:48;;;;;;;8.93;6.20;;;0.90;99.90;;;-0.25;91.03;99627.97;5055289;28;20186;-75
2023/03/11 03:00:20;;;;;;;8.30;6.03;;;0.90;99.90;;;-0.17;90.43;99623.75;5055104;28;20682;-74
2023/03/11 03:02:52;;;;;;;6.43;5.77;;;0.90;99.90;;;-0.30;90.01;99612.53;5055138;28;20209;-75
2023/03/11 03:05:25;;;;;;;7.67;5.93;;;0.90;99.90;;;-0.22;90.16;99618.03;5055080;28;20226;-75
2023/03/11 03:07:57;;;;;;;8.47;6.50;;;0.90;99.90;;;-0.24;90.88;99632.28;5055106;28;20191;-75
2023/03/11 03:10:29;;;;;;;7.30;5.67;;;0.90;99.90;;;-0.25;90.58;99635.84;5054693;28;20557;-75
2023/03/11 03:13:02;;;;;;;6.80;5.97;;;0.80;99.90;;;-0.22;90.63;99635.63;5054677;28;20190;-75
2023/03/11 03:15:34;;;;;;;10.20;6.73;;;0.90;99.90;;;-0.17;90.85;99633.47;5054605;28;20583;-75
2023/03/11 03:18:06;;;;;;;8.47;6.20;;;0.90;99.90;;;-0.23;90.24;99634.78;5054795;28;20201;-75
2023/03/11 03:20:38;;;;;;;8.63;6.17;;;0.90;99.90;;;-0.22;90.24;99640.88;5054420;28;20604;-75
2023/03/11 03:23:10;;;;;;;9.77;5.93;;;0.90;99.90;;;-0.23;91.30;99654.97;5054717;28;20191;-75
2023/03/11 03:25:44;;;;;;;7.97;6.40;;;0.90;99.90;;;-0.16;89.96;99656.16;5054755;28;20190;-74
2023/03/11 03:28:17;;;;;;;8.87;6.00;;;0.90;99.90;;;-0.20;90.10;99660.84;5054660;28;20194;-74
2023/03/11 03:30:49;;;;;;;7.47;5.70;;;0.90;99.90;;;-0.24;90.40;99662.03;5054593;28;20194;-74
2023/03/11 03:33:21;;;;;;;6.77;6.00;;;0.90;99.90;;;-0.20;90.64;99675.78;5054505;28;20244;-73
2023/03/11 03:35:53;;;;;;;11.17;5.70;;;0.90;99.90;;;-0.20;90.59;99675.78;5054512;28;20191;-73
2023/03/11 03:38:24;;;;;;;7.07;5.60;;;0.90;99.90;;;-0.30;91.21;99677.44;5054213;28;20587;-73
2023/03/11 03:40:56;;;;;;;8.23;6.63;;;0.80;99.90;;;-0.26;91.71;99687.63;5054086;28;20678;-73
2023/03/11 03:43:29;;;;;;;8.63;5.97;;;0.80;99.90;;;-0.22;91.20;99686.44;5054029;28;20230;-73
2023/03/11 03:46:04;;;;;;;6.00;5.30;;;0.90;99.90;;;-0.24;91.58;99692.78;5054354;28;20197;-73
2023/03/11 03:48:37;;;;;;;7.23;5.90;;;0.90;99.90;;;-0.17;91.78;99699.25;5053985;28;20189;-73
2023/03/11 03:51:11;;;;;;;8.53;5.80;;;0.90;99.90;;;-0.18;91.25;99705.44;5054202;28;20209;-73
2023/03/11 03:53:45;;;;;;;10.43;5.97;;;1.00;99.90;;;-0.24;92.22;99719.06;5054316;28;20229;-73
2023/03/11 03:56:20;;;;;;;9.07;6.07;;;0.90;99.90;;;-0.26;91.62;99713.06;5054355;28;20220;-73
2023/03/11 03:58:53;;;;;;;10.87;6.23;;;0.90;99.90;;;-0.32;91.59;99724.91;5053217;28;20201;-73
2023/03/11 04:01:25;;;;;;;7.10;5.23;;;0.80;99.90;;;-0.27;91.18;99720.13;5053669;28;20678;-73
2023/03/11 04:03:57;;;;;;;8.97;5.87;;;0.80;99.90;;;-0.27;91.48;99724.53;5053908;28;20276;-75
2023/03/11 04:06:30;;;;;;;9.17;5.23;;;0.80;99.90;;;-0.23;91.00;99731.25;5053992;28;20191;-75
2023/03/11 04:09:02;;;;;;;13.33;5.73;;;0.90;99.90;;;-0.22;91.78;99738.19;5053925;28;20195;-73
2023/03/11 04:11:35;;;;;;;8.33;5.60;;;0.90;99.90;;;-0.27;90.99;99742.94;5053557;28;20186;-73
2023/03/11 04:14:09;;;;;;;6.63;4.97;;;0.80;99.90;;;-0.22;91.33;99746.09;5053407;28;20710;-73
2023/03/11 04:16:41;;;;;;;8.20;5.70;;;0.90;99.90;;;-0.26;90.94;99753.38;5053707;28;20217;-73
2023/03/11 04:19:13;;;;;;;8.03;5.10;;;0.90;99.90;;;-0.20;90.31;99755.53;5053837;28;20220;-74
2023/03/11 04:21:45;;;;;;;8.80;5.10;;;0.90;99.90;;;-0.28;90.31;99751.81;5053324;28;20610;-74
2023/03/11 04:24:17;;;;;;;7.03;5.57;;;0.80;99.90;;;-0.31;89.77;99759.94;5053590;28;20237;-73
2023/03/11 04:26:49;;;;;;;5.83;4.63;;;0.80;99.90;;;-0.37;89.73;99763.84;5053586;28;20193;-73
2023/03/11 04:29:22;;;;;;;8.47;5.00;;;0.80;99.90;;;-0.32;90.71;99761.72;5053352;28;20198;-73
2023/03/11 04:31:54;;;;;;;10.10;5.40;;;0.80;99.90;;;-0.33;89.72;99761.81;5053557;28;20187;-73
2023/03/11 04:34:25;;;;;;;8.73;5.40;;;0.80;99.90;;;-0.28;89.98;99757.91;5053488;28;20226;-73
2023/03/11 04:36:58;;;;;;;6.77;4.90;;;0.80;99.90;;;-0.33;90.01;99767.09;5053555;28;20194;-73
2023/03/11 04:39:29;;;;;;;7.27;5.40;;;0.80;99.90;;;-0.28;90.81;99776.31;5053141;28;20604;-73
2023/03/11 04:42:01;;;;;;;9.23;5.70;;;0.80;99.90;;;-0.31;90.71;99770.47;5053427;28;20215;-73
2023/03/11 04:44:37;;;;;;;8.57;5.57;;;0.80;99.90;;;-0.28;89.63;99768.44;5053318;28;20248;-73
2023/03/11 04:47:09;;;;;;;9.10;5.60;;;0.80;99.90;;;-0.29;90.93;99771.16;5053623;28;20220;-73
2023/03/11 04:49:41;;;;;;;10.60;5.50;;;0.80;99.90;;;-0.33;89.92;99774.97;5053594;28;20224;-73
2023/03/11 04:52:13;;;;;;;8.50;5.40;;;0.80;99.90;;;-0.29;91.36;99781.69;5053351;28;20191;-73
2023/03/11 04:54:45;;;;;;;8.10;5.53;;;0.80;99.90;;;-0.31;90.67;99788.88;5053183;28;20230;-73
2023/03/11 04:57:17;;;;;;;8.13;5.20;;;0.80;99.90;;;-0.29;90.24;99789.59;5053630;28;20201;-73
2023/03/11 04:59:50;;;;;;;13.27;5.80;;;0.80;99.90;;;-0.30;90.76;99794.00;5053227;28;20249;-73
2023/03/11 05:02:22;;;;;;;9.63;5.70;;;0.80;99.90;;;-0.39;90.32;99805.22;5053161;28;20267;-73
2023/03/11 05:04:54;;;;;;;9.33;5.87;;;0.70;99.90;;;-0.36;91.43;99809.41;5053440;28;20617;-73
2023/03/11 05:07:26;;;;;;;9.87;5.93;;;0.70;99.90;;;-0.40;90.96;99818.47;5053237;28;20195;-73
2023/03/11 05:09:58;;;;;;;11.80;6.03;;;0.70;99.90;;;-0.39;90.32;99820.16;5053701;28;20670;-73
2023/03/11 05:12:29;;;;;;;7.57;5.40;;;0.80;99.90;;;-0.32;89.99;99830.09;5056925;28;20602;-73
2023/03/11 05:15:03;;;;;;;7.97;5.33;;;0.80;99.90;;;-0.37;90.69;99829.59;5057001;28;20241;-73
2023/03/11 05:17:35;;;;;;;12.77;5.67;;;0.70;99.90;;;-0.51;91.84;99827.97;5057213;28;20197;-73
2023/03/11 05:20:08;;;;;;;7.83;4.90;;;0.70;99.90;;;-0.47;91.30;99835.63;5057113;28;20200;-75
2023/03/11 05:22:39;;;;;;;7.83;4.30;;;0.60;99.90;;;-0.46;90.61;99834.69;5056974;28;20210;-74
2023/03/11 05:25:12;;;;;;;10.23;4.43;;;0.70;99.90;;;-0.46;91.07;99842.59;5056918;28;20230;-73
2023/03/11 05:27:44;;;;;;;6.73;4.17;;;0.70;99.90;;;-0.41;90.03;99843.91;5057242;28;20197;-73
2023/03/11 05:30:18;;;;;;;7.60;3.87;;;0.70;99.90;;;-0.41;89.81;99851.81;5057205;28;20194;-73
2023/03/11 05:32:50;;;;;;;12.77;3.93;;;0.70;99.90;;;-0.56;91.11;99859.03;5057194;28;20225;-74
2023/03/11 05:35:22;;;;;;;11.27;3.87;;;0.60;99.90;;;-0.59;90.56;99853.16;5056768;28;20257;-73
2023/03/11 05:37:54;;;;;;;11.53;4.00;;;0.60;99.90;;;-0.54;90.83;99862.38;5056793;28;20273;-75
2023/03/11 05:40:26;;;;;;;7.53;3.93;;;0.60;99.90;;;-0.51;91.30;99872.69;5056447;28;20717;-75
2023/03/11 05:42:58;;;;;;;6.37;3.70;;;0.70;99.90;;;-0.55;91.52;99879.09;5056545;28;20221;-76
2023/03/11 05:45:31;;;;;;;7.17;3.50;;;0.60;99.90;;;-0.52;92.13;99875.44;5056508;28;20213;-74
2023/03/11 05:48:03;;;;;;;10.27;4.00;;;0.60;99.90;;;-0.60;91.10;99872.50;5056143;28;20660;-75
2023/03/11 05:50:34;;;;;;;8.03;3.77;;;0.50;99.90;;;-0.57;91.86;99882.78;5056015;28;20635;-75
2023/03/11 05:53:06;;;;;;;6.33;3.50;;;0.60;99.90;;;-0.47;90.74;99877.72;5056410;28;20186;-74
2023/03/11 05:55:38;;;;;;;9.13;4.10;;;0.60;99.90;;;-0.57;91.01;99878.38;5056445;28;20614;-74
2023/03/11 05:58:10;;;;;;;8.73;4.10;;;0.60;99.90;;;-0.62;91.12;99891.00;5056329;28;20190;-75
2023/03/11 06:00:43;;;;;;;5.33;3.23;;;0.50;99.90;;;-0.64;91.46;99885.03;5056376;28;20244;-75
2023/03/11 06:03:15;;;;;;;7.33;3.57;;;0.50;99.90;;;-0.53;91.85;99894.78;5056196;28;20207;-74
2023/03/11 06:05:51;;;;;;;8.83;3.70;;;0.60;99.90;;;-0.58;90.63;99897.72;5056241;28;20190;-74
2023/03/11 06:08:23;;;;;;;7.20;3.50;;;0.60;99.90;;;-0.54;91.14;99899.19;5056255;28;20186;-74
2023/03/11 06:11:03;;;;;;;7.77;3.70;;;0.50;99.90;;;-0.57;91.22;99903.84;5056520;28;20210;-74
2023/03/11 06:13:35;;;;;;;8.53;3.77;;;0.60;99.90;;;-0.57;91.52;99904.66;5056309;28;20585;-75
2023/03/11 06:16:08;;;;;;;12.40;3.87;;;0.50;99.90;;;-0.60;91.33;99918.03;5055722;28;20222;-75
2023/03/11 06:18:40;;;;;;;11.30;3.47;;;0.60;99.90;;;-0.57;90.81;99920.44;5056059;28;20230;-74
2023/03/11 06:21:17;;;;;;;12.13;3.63;;;0.60;99.90;;;-0.47;91.52;99920.63;5055577;28;20252;-74
2023/03/11 06:23:50;;;;;;;14.10;4.07;;;0.60;99.90;;;-0.49;90.76;99924.31;5055422;28;20229;-74
2023/03/11 06:26:25;;;;;;;11.97;3.77;;;0.60;99.90;;;-0.49;91.71;99930.41;5055600;28;20602;-75
2023/03/11 06:28:57;;;;;;;12.93;3.73;;;0.60;99.90;;;-0.44;90.50;99930.91;5055835;28;20190;-74
2023/03/11 06:31:33;;;;;;;10.90;3.30;;;0.70;99.90;;;-0.42;91.27;99938.69;5055516;28;20708;-75
2023/03/11 06:34:05;;;;;;;8.83;3.17;;;0.70;99.90;;;-0.47;90.62;99941.66;5055652;28;20233;-74
2023/03/11 06:36:37;;;;;;;9.97;3.37;;;0.70;99.90;;;-0.48;90.75;99939.16;5055713;28;20190;-75
2023/03/11 06:39:11;;;;;;;10.43;3.00;;;0.70;99.90;;;-0.43;89.89;99947.53;5055244;28;20678;-75
2023/03/11 06:41:43;;;;;;;7.50;2.93;;;0.70;99.90;;;-0.43;89.67;99952.78;5055948;28;20217;-75
2023/03/11 06:44:15;;;;;;;6.80;2.90;;;0.70;99.90;;;-0.38;90.65;99961.22;5055409;28;20226;-74
2023/03/11 06:46:48;;;;;;;9.77;3.13;;;0.70;99.90;;;-0.34;89.37;99957.41;5055451;28;20187;-74
2023/03/11 06:49:20;;;;;;;9.40;3.07;;;0.70;99.90;;;-0.32;90.56;99973.91;5055574;28;20276;-75
2023/03/11 06:51:52;;;;;;;7.10;3.27;;;0.70;99.90;;;-0.30;89.91;99975.47;5055623;28;20193;-74
2023/03/11 06:54:24;;;;;;;7.10;2.83;;;0.80;99.90;;;-0.25;89.28;99977.78;5055453;28;20249;-76
2023/03/11 06:56:56;;;;;;;8.87;3.40;;;0.80;99.90;;;-0.32;89.12;99985.28;5055336;28;20199;-76
2023/03/11 06:59:28;;;;;;;6.97;3.13;;;0.80;99.90;;;-0.29;89.59;99998.19;5055284;28;20551;-76
2023/03/11 07:02:01;;;;;;;10.53;3.00;;;0.80;99.90;;;-0.37;89.88;99986.53;5055163;28;20214;-75
2023/03/11 07:04:33;;;;;;;8.37;3.10;;;0.80;99.90;;;-0.34;89.90;100000.31;5054809;28;20628;-74
2023/03/11 07:07:05;;;;;;;6.67;3.23;;;0.80;99.90;;;-0.27;89.45;100000.69;5054833;28;20620;-75
2023/03/11 07:09:36;;;;;;;11.90;3.70;;;0.80;99.90;;;-0.30;90.36;100003.56;5054771;28;20561;-75
2023/03/11 07:12:09;;;;;;;6.43;2.97;;;0.80;99.90;;;-0.32;89.46;100008.09;5055054;28;20182;-75
2023/03/11 07:14:41;;;;;;;7.30;3.13;;;0.80;99.90;;;-0.37;90.14;100023.34;5054627;28;20230;-75
2023/03/11 07:17:14;;;;;;;10.17;3.10;;;0.80;99.90;;;-0.29;90.17;100021.88;5055039;28;20194;-74
2023/03/11 07:19:46;;;;;;;6.50;2.97;;;0.80;99.90;;;-0.33;90.29;100032.72;5055062;28;20198;-75
2023/03/11 07:22:18;;;;;;;9.40;3.33;;;0.80;99.90;;;-0.29;90.46;100040.28;5054685;28;20214;-75
2023/03/11 07:24:50;;;;;;;6.20;3.27;;;0.80;99.90;;;-0.29;90.77;100044.69;5054544;28;20233;-75
2023/03/11 07:27:22;;;;;;;10.20;3.50;;;0.80;99.90;;;-0.28;90.19;100052.50;5054299;28;20630;-75
2023/03/11 07:29:54;;;;;;;7.10;2.63;;;0.80;99.90;;;-0.30;89.80;100054.38;5054546;28;20190;-75
2023/03/11 07:32:27;;;;;;;10.47;2.90;;;0.80;99.90;;;-0.28;90.05;100059.53;5054549;28;20186;-75
2023/03/11 07:35:01;;;;;;;6.47;3.07;;;0.80;99.90;;;-0.26;89.84;100071.63;5053514;28;20253;-74
2023/03/11 07:37:33;;;;;;;9.47;3.30;;;0.90;99.90;;;-0.26;89.84;100076.03;5054493;28;20190;-75
2023/03/11 07:40:05;;;;;;;8.40;3.00;;;0.90;99.90;;;-0.28;89.51;100083.22;5054502;28;20191;-75
2023/03/11 07:42:39;;;;;;;6.37;2.80;;;0.80;99.90;;;-0.20;89.79;100083.50;5054239;28;20225;-74
2023/03/11 07:45:13;;;;;;;6.67;2.67;;;0.90;99.90;;;-0.19;90.57;100093.06;5054259;28;20225;-75
2023/03/11 07:47:47;;;;;;;4.67;3.13;;;0.90;99.90;;;-0.13;89.63;100101.38;5053776;28;20232;-74
2023/03/11 07:50:21;;;;;;;7.80;2.60;;;1.00;99.90;;;-0.13;88.98;100109.25;5053904;28;20191;-75
2023/03/11 07:52:52;;;;;;;5.03;2.87;;;1.00;99.90;;;-0.12;89.36;100110.13;5054220;28;20191;-75
2023/03/11 07:55:26;;;;;;;9.57;2.93;;;1.00;99.90;;;-0.14;89.91;100119.91;5053842;28;20233;-74
2023/03/11 07:57:57;;;;;;;14.17;8.33;;;1.00;99.90;;;-0.09;89.70;100126.53;5054007;28;20194;-75
2023/03/11 08:00:29;;;;;;;8.50;5.13;;;1.00;99.90;;;-0.04;89.11;100123.59;5053818;28;20676;-76
2023/03/11 08:03:02;;;;;;;9.80;2.87;;;1.00;99.90;;;-0.04;88.53;100134.09;5053675;28;20212;-75
2023/03/11 08:05:37;;;;;;;34.80;15.93;;;1.10;99.90;;;-0.06;88.68;100130.72;5054253;28;20221;-77
2023/03/11 08:08:10;;;;;;;10.23;4.67;;;1.00;99.90;;;-0.07;89.82;100132.50;5053977;28;20201;-75
2023/03/11 08:10:42;;;;;;;8.13;2.77;;;1.00;99.90;;;-0.10;88.50;100132.72;5054043;28;20201;-75
2023/03/11 08:13:14;;;;;;;8.87;3.30;;;1.10;99.90;;;-0.04;88.94;100144.63;5053529;28;20643;-75
2023/03/11 08:15:46;;;;;;;6.87;2.77;;;1.00;99.90;;;-0.20;87.90;100149.25;5053716;28;20820;-76
2023/03/11 08:18:19;;;;;;;6.57;2.93;;;1.00;99.90;;;-0.10;89.64;100150.31;5053887;28;20197;-76
2023/03/11 08:20:51;;;;;;;8.73;2.80;;;1.00;99.90;;;-0.09;89.26;100149.34;5053792;28;20191;-76
2023/03/11 08:23:23;;;;;;;6.67;2.87;;;1.00;99.90;;;-0.10;88.67;100147.66;5053626;28;20222;-75
2023/03/11 08:25:55;;;;;;;6.60;3.10;;;1.00;99.90;;;0.03;88.02;100161.66;5053429;28;20196;-76
2023/03/11 08:28:27;;;;;;;5.17;2.73;;;1.10;99.90;;;0.07;88.25;100171.00;5053641;28;20190;-76
2023/03/11 08:30:58;;;;;;;7.43;2.97;;;1.20;99.90;;;0.10;87.89;100173.47;5053707;28;20229;-76
2023/03/11 08:33:31;;;;;;;8.27;3.20;;;1.20;99.90;;;0.09;88.92;100177.03;5053191;28;20229;-75
2023/03/11 08:36:03;;;;;;;19.60;8.77;;;1.20;99.90;;;0.13;87.65;100181.13;5053621;28;20244;-76
2023/03/11 08:38:35;;;;;;;6.37;3.00;;;1.20;99.90;;;0.24;87.83;100185.66;5053872;28;20194;-76
2023/03/11 08:41:08;;;;;;;12.47;5.40;;;1.30;99.90;;;0.37;86.78;100187.28;5053256;28;20566;-76
2023/03/11 08:43:41;;;;;;;5.93;3.00;;;1.40;99.90;;;0.48;86.51;100194.41;5053104;28;20694;-75
2023/03/11 08:46:20;;;;;;;9.47;3.77;;;1.50;99.90;;;0.63;86.22;100193.31;5053960;28;20507;-76
2023/03/11 08:48:54;;;;;;;6.80;2.93;;;1.60;99.90;;;0.72;85.38;100194.47;5053497;28;20186;-76
2023/03/11 08:51:26;;;;;;;4.73;2.77;;;1.70;99.90;;;0.81;85.08;100193.78;5053515;28;20182;-76
2023/03/11 08:53:58;;;;;;;7.00;3.00;;;1.80;99.90;;;0.87;84.83;100201.22;5053371;28;20309;-75
2023/03/11 08:56:30;;;;;;;7.50;2.80;;;1.90;99.90;;;0.96;84.37;100197.91;5053442;28;20225;-75
2023/03/11 08:59:02;;;;;;;6.03;3.27;;;1.90;99.90;;;1.00;85.36;100212.56;5053417;28;20191;-75
2023/03/11 09:01:34;;;;;;;4.17;3.10;;;2.00;99.90;;;1.10;85.15;100218.81;5053335;28;20186;-75
2023/03/11 09:04:08;;;;;;;7.60;3.60;;;2.10;99.90;;;1.09;84.81;100221.59;5053229;28;20233;-75
2023/03/11 09:06:43;;;;;;;6.60;3.00;;;2.10;99.90;;;1.16;83.95;100223.69;5053366;28;20193;-75
2023/03/11 09:09:19;;;;;;;8.23;3.40;;;2.10;99.90;;;1.19;84.56;100220.81;5052948;28;20638;-75
2023/03/11 09:11:50;;;;;;;6.03;3.10;;;2.20;99.90;;;1.21;84.37;100221.53;5053472;28;20293;-76
2023/03/11 09:14:22;;;;;;;5.83;3.40;;;2.20;99.90;;;1.30;83.48;100236.66;5053451;28;20291;-75
2023/03/11 09:16:54;;;;;;;7.17;3.13;;;2.30;99.90;;;1.37;83.97;100237.88;5053383;28;20202;-75
2023/03/11 09:19:27;;;;;;;7.90;3.83;;;2.40;99.90;;;1.39;83.98;100241.25;5053153;28;20190;-75
2023/03/11 09:22:01;;;;;;;7.10;3.10;;;2.40;99.90;;;1.43;83.80;100242.72;5053197;28;20193;-75
2023/03/11 09:24:34;;;;;;;7.50;3.83;;;2.40;99.90;;;1.28;83.18;100243.84;5052614;28;20226;-75
2023/03/11 09:27:06;;;;;;;15.80;4.20;;;2.40;99.90;;;1.45;83.22;100253.13;5053097;28;20190;-75
2023/03/11 09:29:38;;;;;;;8.80;3.77;;;2.40;99.90;;;1.44;83.49;100249.66;5053056;28;20199;-75
2023/03/11 09:32:14;;;;;;;8.30;4.23;;;2.50;99.90;;;1.53;83.42;100242.88;5053025;28;20190;-75
2023/03/11 09:34:47;;;;;;;5.93;3.37;;;2.50;99.90;;;1.44;83.56;100252.28;5052992;28;20221;-75
2023/03/11 09:37:18;;;;;;;10.37;3.77;;;2.40;99.90;;;1.53;83.73;100259.53;5053033;28;20195;-75
2023/03/11 09:39:50;;;;;;;8.07;3.90;;;2.60;99.90;;;1.63;82.71;100264.13;5052917;28;20198;-75
2023/03/11 09:42:34;;;;;;;7.00;3.97;;;2.60;99.90;;;1.70;82.92;100252.16;5052919;28;20611;-75
2023/03/11 09:45:15;;;;;;;9.57;4.50;;;2.70;99.90;;;1.73;83.61;100251.91;5052430;28;20226;-75
2023/03/11 09:48:07;;;;;;;9.90;4.30;;;2.70;99.90;;;1.80;82.57;100255.78;5052858;28;20186;-76
2023/03/11 09:50:51;;;;;;;5.70;3.43;;;2.80;99.90;;;1.85;82.24;100269.47;5052933;28;20191;-76
2023/03/11 09:53:32;;;;;;;8.97;3.73;;;2.80;99.90;;;1.96;82.10;100272.13;5052797;28;20186;-75
2023/03/11 09:56:09;;;;;;;7.03;3.83;;;2.90;99.90;;;1.99;81.82;100277.16;5052826;28;20217;-75
2023/03/11 09:58:46;;;;;;;7.70;3.80;;;3.00;99.90;;;1.99;82.09;100274.50;5056002;28;20190;-75
2023/03/11 10:01:26;;;;;;;10.73;3.50;;;3.00;99.90;;;1.93;81.91;100282.91;5056444;28;20304;-75
2023/03/11 10:04:08;;;;;;;8.17;4.23;;;2.90;99.90;;;2.00;81.71;100287.63;5056276;28;20230;-75
2023/03/11 10:06:44;;;;;;;8.27;4.00;;;3.00;99.90;;;2.08;82.06;100289.69;5056330;28;20213;-77
2023/03/11 10:09:33;;;;;;;7.97;3.87;;;3.10;99.90;;;2.20;82.32;100287.88;5056227;28;20284;-75
2023/03/11 10:12:18;;;;;;;9.53;3.47;;;3.20;99.90;;;2.26;82.07;100295.34;5056354;28;20208;-75
2023/03/11 10:15:08;;;;;;;7.43;3.87;;;3.20;99.90;;;2.28;80.97;100288.97;5055929;28;20237;-75
2023/03/11 10:18:01;;;;;;;7.73;3.50;;;3.30;99.90;;;2.14;80.84;100289.19;5055994;28;20214;-76
2023/03/11 10:20:42;;;;;;;6.97;3.63;;;3.20;99.90;;;2.28;80.59;100286.34;5056022;28;20206;-76
2023/03/11 10:23:32;;;;;;;8.77;4.17;;;3.30;99.90;;;2.36;80.24;100294.50;5055836;28;20205;-75
2023/03/11 10:26:11;;;;;;;7.00;4.30;;;3.40;99.90;;;2.41;80.48;100292.34;5055650;28;20650;-75
2023/03/11 10:28:51;;;;;;;7.80;3.50;;;3.40;99.90;;;2.37;79.94;100298.81;5055941;28;20198;-75
2023/03/11 10:31:31;;;;;;;10.03;3.47;;;3.40;99.90;;;2.46;80.39;100298.13;5056094;28;20194;-75
2023/03/11 10:34:14;;;;;;;10.80;3.47;;;3.50;99.90;;;2.44;80.06;100299.19;5055991;28;20292;-75
2023/03/11 10:36:57;;;;;;;7.17;3.83;;;3.50;99.90;;;2.49;80.70;100308.44;5055807;28;20196;-76
2023/03/11 10:39:32;;;;;;;10.10;3.97;;;3.50;99.90;;;2.54;80.20;100295.72;5055679;28;20186;-76
2023/03/11 10:42:11;;;;;;;7.80;3.87;;;3.60;99.90;;;2.59;80.10;100294.50;5055314;28;20590;-76
2023/03/11 10:44:45;;;;;;;7.93;3.40;;;3.60;99.90;;;2.60;79.20;100302.34;5055412;28;20221;-75
2023/03/11 10:47:24;;;;;;;6.97;3.80;;;3.60;99.90;;;2.57;79.99;100299.09;5055219;28;20592;-76
2023/03/11 10:49:56;;;;;;;5.97;3.67;;;3.60;99.90;;;2.65;80.40;100307.22;5055540;28;20210;-76